Oyster Bayou — WZN2179 — position and weather

sailwx.info

Track history (hours):
 
Tides and Currents Weather Stations Pressure Air Temp Water Temp Dewpoint Dewpoint Depression Visibility Wind Speed Wind Dir Waves Ship Positions

Oyster Bayou

Owner: OMEGA PROTEIN INC., Moss Point, MS. More information available from US FCC via Universal Licensing System and Coast Guard Vessel Documentation Center.

Last reported at 2017-Oct-31 22:16 UTC. Time now 2017-Dec-16 07:11 UTC.
Position N 29°49' W 092°08'.
Warning: this ship's position is 45 days out of date.

Length 49 m; draft 3.5 m.

Type: Fishing. MMSI: 367088130.

Date/timePositionNaut miles runAvg speedWind from/ knotsBaromVisibWave heightAir tempDewpointWater temp
2017-Oct-31 22:16N 29°49' W 092°08'0 0.6
2017-Oct-31 21:59N 29°49' W 092°08'0 0.0
2017-Oct-31 21:29N 29°49' W 092°08'0 0.0
2017-Oct-31 20:59N 29°49' W 092°08'0 0.0
2017-Oct-31 20:29N 29°49' W 092°08'0 0.0
2017-Oct-31 19:59N 29°49' W 092°08'0 0.0
2017-Oct-31 19:29N 29°49' W 092°08'0 0.0
2017-Oct-31 18:59N 29°49' W 092°08'0 0.0
2017-Oct-31 18:30N 29°49' W 092°08'2 4.4
2017-Oct-31 18:00N 29°47' W 092°09'4 8.5
2017-Oct-31 17:30N 29°43' W 092°06'4 7.3
2017-Oct-31 17:00N 29°41' W 092°03'11 0.3
2017-Oct-30 00:56N 29°39' W 092°16'4 8.3
2017-Oct-30 00:30N 29°42' W 092°15'4 8.8
2017-Oct-30 00:00N 29°46' W 092°12'3 6.7
2017-Oct-29 23:30N 29°47' W 092°09'2 4.0
2017-Oct-29 22:58N 29°49' W 092°08'0 0.0
2017-Oct-29 22:28N 29°49' W 092°08'0 0.0
2017-Oct-29 21:58N 29°49' W 092°08'0 0.0
2017-Oct-29 21:28N 29°49' W 092°08'0 0.0
2017-Oct-29 20:58N 29°49' W 092°08'0 0.0
2017-Oct-29 20:28N 29°49' W 092°08'0 0.0
2017-Oct-29 19:58N 29°49' W 092°08'0 0.0
2017-Oct-29 19:28N 29°49' W 092°08'0 0.0
2017-Oct-29 18:58N 29°49' W 092°08'0 0.0
2017-Oct-29 18:28N 29°49' W 092°08'0 0.0
2017-Oct-29 17:55N 29°49' W 092°08'0 0.0
2017-Oct-29 17:28N 29°49' W 092°08'0 0.0
2017-Oct-29 16:58N 29°49' W 092°08'0 0.0
2017-Oct-29 16:28N 29°49' W 092°08'0 0.0
2017-Oct-29 15:58N 29°49' W 092°08'0 0.0
2017-Oct-29 15:28N 29°49' W 092°08'0 0.0
2017-Oct-29 14:58N 29°49' W 092°08'0 0.0
2017-Oct-29 14:28N 29°49' W 092°08'0 0.0
2017-Oct-29 13:58N 29°49' W 092°08'0 0.0
2017-Oct-29 13:28N 29°49' W 092°08'0 0.0
2017-Oct-29 12:58N 29°49' W 092°08'0 0.0
2017-Oct-29 12:28N 29°49' W 092°08'0 0.0
2017-Oct-29 11:58N 29°49' W 092°08'0 0.0
2017-Oct-29 11:28N 29°49' W 092°08'0 0.0
2017-Oct-29 10:58N 29°49' W 092°08'0 0.0
2017-Oct-29 10:28N 29°49' W 092°08'0 0.0
2017-Oct-29 09:58N 29°49' W 092°08'0 0.0
2017-Oct-29 09:28N 29°49' W 092°08'0 0.0
2017-Oct-29 08:58N 29°49' W 092°08'0 0.0
2017-Oct-29 08:28N 29°49' W 092°08'0 0.0
2017-Oct-29 07:58N 29°49' W 092°08'0 0.0
2017-Oct-29 07:28N 29°49' W 092°08'0 0.0
2017-Oct-29 06:58N 29°49' W 092°08'0 0.0
2017-Oct-29 06:28N 29°49' W 092°08'0 0.0
2017-Oct-29 05:58N 29°49' W 092°08'0 0.0
2017-Oct-29 05:28N 29°49' W 092°08'0 0.0
2017-Oct-29 04:58N 29°49' W 092°08'0 0.0
2017-Oct-29 04:28N 29°49' W 092°08'0 0.0
2017-Oct-29 03:58N 29°49' W 092°08'0 0.0
2017-Oct-28 19:00N 29°49' W 092°08'0 0.0
2017-Oct-28 18:30N 29°49' W 092°08'0 0.0
2017-Oct-28 18:00N 29°49' W 092°08'0 0.0
2017-Oct-28 17:27N 29°49' W 092°08'0 0.0
2017-Oct-28 17:00N 29°49' W 092°08'0 0.0
2017-Oct-28 16:30N 29°49' W 092°08'0 0.0
2017-Oct-28 16:00N 29°49' W 092°08'0 0.0
2017-Oct-28 15:30N 29°49' W 092°08'0 0.0
2017-Oct-28 15:00N 29°49' W 092°08'0 0.0
2017-Oct-28 14:30N 29°49' W 092°08'0 0.0
2017-Oct-28 14:00N 29°49' W 092°08'0 0.0
2017-Oct-28 13:30N 29°49' W 092°08'0 0.0
2017-Oct-28 13:00N 29°49' W 092°08'0 0.0
2017-Oct-28 12:30N 29°49' W 092°08'0 0.0
2017-Oct-28 12:00N 29°49' W 092°08'0 0.0
2017-Oct-28 11:30N 29°49' W 092°08'0 0.0
2017-Oct-28 11:00N 29°49' W 092°08'0 0.0
2017-Oct-28 10:30N 29°49' W 092°08'0 0.0
2017-Oct-28 10:00N 29°49' W 092°08'0 0.0
2017-Oct-28 09:30N 29°49' W 092°08'0 0.0
2017-Oct-28 09:00N 29°49' W 092°08'0 0.0
2017-Oct-28 08:30N 29°49' W 092°08'0 0.0
2017-Oct-28 08:00N 29°49' W 092°08'0 0.0
2017-Oct-28 07:30N 29°49' W 092°08'0 0.0
2017-Oct-28 06:58N 29°49' W 092°08'0 0.0
2017-Oct-28 06:28N 29°49' W 092°08'0 0.0
2017-Oct-28 05:58N 29°49' W 092°08'0 0.0
2017-Oct-28 05:28N 29°49' W 092°08'0 0.0
2017-Oct-28 04:55N 29°49' W 092°08'0 0.0
2017-Oct-28 04:28N 29°49' W 092°08'0 0.0
2017-Oct-28 03:58N 29°49' W 092°08'0 0.0
2017-Oct-28 03:28N 29°49' W 092°08'0 0.0
2017-Oct-28 02:58N 29°49' W 092°08'0 0.0
2017-Oct-28 02:28N 29°49' W 092°08'0 0.0
2017-Oct-28 01:58N 29°49' W 092°08'0 0.0
2017-Oct-28 01:28N 29°49' W 092°08'0 0.0
2017-Oct-28 00:58N 29°49' W 092°08'0 0.0
2017-Oct-28 00:28N 29°49' W 092°08'0 0.0
2017-Oct-27 23:58N 29°49' W 092°08'0 0.0
2017-Oct-27 23:28N 29°49' W 092°08'0 0.0
2017-Oct-27 22:55N 29°49' W 092°08'0 0.0
2017-Oct-27 22:28N 29°49' W 092°08'0 0.0
2017-Oct-27 21:58N 29°49' W 092°08'0 0.0
2017-Oct-27 21:28N 29°49' W 092°08'0 0.0
2017-Oct-27 20:58N 29°49' W 092°08'0 0.0
2017-Oct-27 20:28N 29°49' W 092°08'0 0.0
2017-Oct-27 19:58N 29°49' W 092°08'0 0.0
2017-Oct-27 19:28N 29°49' W 092°08'0 0.0
2017-Oct-27 18:58N 29°49' W 092°08'0 0.0
2017-Oct-27 18:28N 29°49' W 092°08'0 0.0
2017-Oct-27 17:58N 29°49' W 092°08'0 0.0
2017-Oct-27 17:28N 29°49' W 092°08'0 0.0
2017-Oct-27 16:58N 29°49' W 092°08'0 0.3
2017-Oct-27 16:30N 29°49' W 092°08'0 0.0
2017-Oct-27 16:00N 29°49' W 092°08'0 0.0
2017-Oct-27 15:30N 29°49' W 092°08'0 0.0
2017-Oct-27 15:00N 29°49' W 092°08'0 0.0
2017-Oct-27 14:30N 29°49' W 092°08'0 0.0
2017-Oct-27 14:00N 29°49' W 092°08'2 3.9
2017-Oct-27 13:30N 29°47' W 092°09'3 6.7
2017-Oct-27 13:00N 29°46' W 092°12'4 8.9
2017-Oct-27 12:30N 29°42' W 092°15'5 7.8
2017-Oct-27 11:52N 29°37' W 092°16'3 0.1
2017-Oct-26 01:49N 29°35' W 092°18'4 8.0
2017-Oct-26 01:19N 29°38' W 092°16'2 7.6
2017-Oct-26 01:00N 29°40' W 092°15'4 7.6
2017-Oct-26 00:30N 29°44' W 092°14'4 8.5
2017-Oct-26 00:01N 29°47' W 092°10'2 4.4
2017-Oct-25 23:30N 29°48' W 092°08'1 2.9
2017-Oct-25 23:00N 29°49' W 092°08'0 0.0
2017-Oct-25 22:31N 29°49' W 092°08'0 0.0
2017-Oct-25 22:00N 29°49' W 092°08'0 0.0
2017-Oct-25 21:30N 29°49' W 092°08'0 0.0
2017-Oct-25 21:00N 29°49' W 092°08'0 0.0
2017-Oct-25 20:30N 29°49' W 092°08'0 0.0
2017-Oct-25 20:00N 29°49' W 092°08'0 0.0
2017-Oct-25 19:30N 29°49' W 092°08'0 0.0
2017-Oct-25 19:00N 29°49' W 092°08'0 0.0
2017-Oct-25 18:30N 29°49' W 092°08'0 0.0
2017-Oct-25 18:01N 29°49' W 092°08'0 0.0
2017-Oct-25 17:30N 29°49' W 092°08'0 0.0
2017-Oct-25 17:00N 29°49' W 092°08'0 0.0
2017-Oct-25 16:30N 29°49' W 092°08'0 0.0
2017-Oct-25 16:00N 29°49' W 092°08'0 0.0
2017-Oct-25 15:30N 29°49' W 092°08'0 0.0
2017-Oct-25 15:00N 29°49' W 092°08'0 0.0
2017-Oct-25 14:30N 29°49' W 092°08'0 0.0
2017-Oct-25 14:01N 29°49' W 092°08'0 0.0
2017-Oct-25 13:31N 29°49' W 092°08'0 0.0
2017-Oct-25 13:00N 29°49' W 092°08'0 0.0
2017-Oct-25 12:31N 29°49' W 092°08'0 0.0
2017-Oct-25 12:00N 29°49' W 092°08'0 0.0
2017-Oct-25 11:30N 29°49' W 092°08'0 0.0
2017-Oct-25 11:00N 29°49' W 092°08'0 0.0
2017-Oct-25 10:30N 29°49' W 092°08'0 0.0
2017-Oct-25 10:00N 29°49' W 092°08'0 0.0
2017-Oct-25 09:30N 29°49' W 092°08'0 0.0
2017-Oct-25 09:00N 29°49' W 092°08'0 0.0
2017-Oct-25 08:31N 29°49' W 092°08'0 0.0
2017-Oct-25 08:00N 29°49' W 092°08'0 0.0
2017-Oct-25 07:30N 29°49' W 092°08'0 0.0
2017-Oct-25 07:01N 29°49' W 092°08'0 0.0
2017-Oct-25 06:30N 29°49' W 092°08'0 0.0
2017-Oct-25 06:00N 29°49' W 092°08'0 0.0
2017-Oct-25 05:31N 29°49' W 092°08'0 0.0
2017-Oct-25 05:00N 29°49' W 092°08'0 0.0
2017-Oct-25 04:30N 29°49' W 092°08'0 0.0
2017-Oct-25 04:00N 29°49' W 092°08'0 0.0
2017-Oct-25 03:30N 29°49' W 092°08'0 0.0
2017-Oct-25 03:01N 29°49' W 092°08'0 0.0
2017-Oct-25 02:30N 29°49' W 092°08'0 0.0
2017-Oct-25 02:00N 29°49' W 092°08'0 0.0
2017-Oct-25 01:30N 29°49' W 092°08'0 0.0
2017-Oct-25 01:00N 29°49' W 092°08'0 0.0
2017-Oct-25 00:30N 29°49' W 092°08'0 0.0
2017-Oct-25 00:00N 29°49' W 092°08'0 0.0
2017-Oct-24 23:30N 29°49' W 092°08'0 0.0
2017-Oct-24 23:01N 29°49' W 092°08'0 0.0
2017-Oct-24 22:30N 29°49' W 092°08'0 0.0
2017-Oct-24 22:00N 29°49' W 092°08'0 0.0
2017-Oct-24 21:30N 29°49' W 092°08'0 0.0
2017-Oct-24 21:01N 29°49' W 092°08'0 0.0
2017-Oct-24 20:31N 29°49' W 092°08'1 2.2
2017-Oct-24 20:00N 29°48' W 092°08'2 4.1
2017-Oct-24 19:30N 29°47' W 092°10'4 8.3
2017-Oct-24 19:00N 29°44' W 092°14'4 8.8
2017-Oct-24 18:30N 29°40' W 092°15'10 0.3
2017-Oct-23 13:40N 29°42' W 092°04'1 7.2
2017-Oct-23 13:30N 29°42' W 092°05'4 7.9
2017-Oct-23 13:00N 29°46' W 092°08'3 6.0
2017-Oct-23 12:30N 29°49' W 092°08'1 1.0
2017-Oct-23 11:55N 29°49' W 092°08'0 0.0
2017-Oct-23 03:07N 29°49' W 092°08'0 0.0
2017-Oct-23 02:55N 29°49' W 092°08'0 0.0
2017-Oct-23 02:13N 29°49' W 092°08'0 0.0
2017-Oct-23 01:43N 29°49' W 092°08'0 0.0
2017-Oct-23 01:19N 29°49' W 092°08'0 0.0
2017-Oct-23 00:55N 29°49' W 092°08'0 0.0
2017-Oct-23 00:27N 29°49' W 092°08'0 0.0
2017-Oct-22 23:57N 29°49' W 092°08'0 0.0
2017-Oct-22 23:24N 29°49' W 092°08'0 0.0
2017-Oct-22 22:51N 29°49' W 092°08'0 0.0
2017-Oct-22 20:57N 29°49' W 092°08'0 0.0
2017-Oct-22 20:27N 29°49' W 092°08'0 0.0
2017-Oct-22 20:00N 29°49' W 092°08'0 0.0
2017-Oct-22 19:30N 29°49' W 092°08'0 0.0
2017-Oct-22 18:03N 29°49' W 092°08'0 0.0
2017-Oct-22 17:54N 29°49' W 092°08'0 0.0
2017-Oct-22 17:27N 29°49' W 092°08'0 0.0
2017-Oct-22 16:57N 29°49' W 092°08'0 0.0
2017-Oct-22 16:30N 29°49' W 092°08'0 0.0
2017-Oct-22 16:00N 29°49' W 092°08'0 0.0
2017-Oct-22 15:30N 29°49' W 092°08'0 0.0
2017-Oct-22 15:00N 29°49' W 092°08'0 0.0
2017-Oct-22 14:28N 29°49' W 092°08'0 0.0
2017-Oct-22 14:01N 29°49' W 092°08'0 0.0
2017-Oct-22 13:28N 29°49' W 092°08'0 0.0
2017-Oct-22 12:58N 29°49' W 092°08'0 0.0
2017-Oct-22 12:31N 29°49' W 092°08'0 0.0
2017-Oct-22 12:00N 29°49' W 092°08'0 0.0
2017-Oct-22 11:31N 29°49' W 092°08'0 0.0
2017-Oct-22 11:00N 29°49' W 092°08'0 0.0
2017-Oct-22 10:31N 29°49' W 092°08'0 0.0
2017-Oct-22 10:00N 29°49' W 092°08'0 0.0
2017-Oct-22 09:30N 29°49' W 092°08'0 0.0
2017-Oct-22 09:00N 29°49' W 092°08'0 0.0
2017-Oct-22 08:30N 29°49' W 092°08'0 0.0
2017-Oct-22 07:55N 29°49' W 092°08'0 0.0
2017-Oct-22 07:30N 29°49' W 092°08'0 0.0
2017-Oct-22 07:00N 29°49' W 092°08'0 0.0
2017-Oct-22 06:30N 29°49' W 092°08'0 0.0
2017-Oct-22 06:00N 29°49' W 092°08'0 0.0
2017-Oct-22 05:30N 29°49' W 092°08'0 0.0
2017-Oct-22 04:59N 29°49' W 092°08'0 0.0
2017-Oct-22 04:29N 29°49' W 092°08'0 0.0
2017-Oct-22 03:59N 29°49' W 092°08'0 0.0
2017-Oct-22 03:29N 29°49' W 092°08'0 0.0
2017-Oct-22 02:59N 29°49' W 092°08'0 0.0
2017-Oct-22 02:26N 29°49' W 092°08'0 0.0
2017-Oct-22 01:59N 29°49' W 092°08'0 0.0
2017-Oct-22 01:29N 29°49' W 092°08'0 0.0
2017-Oct-22 00:59N 29°49' W 092°08'0 0.0
2017-Oct-22 00:29N 29°49' W 092°08'0 0.0
2017-Oct-21 23:59N 29°49' W 092°08'0 0.0
2017-Oct-21 23:29N 29°49' W 092°08'0 0.0
2017-Oct-21 22:59N 29°49' W 092°08'0 0.0
2017-Oct-21 22:29N 29°49' W 092°08'  
Track history (hours):
 
Tides and Currents Weather Stations Pressure Air Temp Water Temp Dewpoint Dewpoint Depression Visibility Wind Speed Wind Dir Waves Ship Positions

Oyster Bayou

Owner: OMEGA PROTEIN INC., Moss Point, MS. More information available from US FCC via Universal Licensing System and Coast Guard Vessel Documentation Center.

Last reported at 2017-Oct-31 22:16 UTC. Time now 2017-Dec-16 07:11 UTC.
Position N 29°49' W 092°08'.
Warning: this ship's position is 45 days out of date.

Length 49 m; draft 3.5 m.

Type: Fishing. MMSI: 367088130.

Date/timePositionNaut miles runAvg speedWind from/ knotsBaromVisibWave heightAir tempDewpointWater temp
2017-Oct-31 22:16N 29°49' W 092°08'0 0.6
2017-Oct-31 21:59N 29°49' W 092°08'0 0.0
2017-Oct-31 21:29N 29°49' W 092°08'0 0.0
2017-Oct-31 20:59N 29°49' W 092°08'0 0.0
2017-Oct-31 20:29N 29°49' W 092°08'0 0.0
2017-Oct-31 19:59N 29°49' W 092°08'0 0.0
2017-Oct-31 19:29N 29°49' W 092°08'0 0.0
2017-Oct-31 18:59N 29°49' W 092°08'0 0.0
2017-Oct-31 18:30N 29°49' W 092°08'2 4.4
2017-Oct-31 18:00N 29°47' W 092°09'4 8.5
2017-Oct-31 17:30N 29°43' W 092°06'4 7.3
2017-Oct-31 17:00N 29°41' W 092°03'11 0.3
2017-Oct-30 00:56N 29°39' W 092°16'4 8.3
2017-Oct-30 00:30N 29°42' W 092°15'4 8.8
2017-Oct-30 00:00N 29°46' W 092°12'3 6.7
2017-Oct-29 23:30N 29°47' W 092°09'2 4.0
2017-Oct-29 22:58N 29°49' W 092°08'0 0.0
2017-Oct-29 22:28N 29°49' W 092°08'0 0.0
2017-Oct-29 21:58N 29°49' W 092°08'0 0.0
2017-Oct-29 21:28N 29°49' W 092°08'0 0.0
2017-Oct-29 20:58N 29°49' W 092°08'0 0.0
2017-Oct-29 20:28N 29°49' W 092°08'0 0.0
2017-Oct-29 19:58N 29°49' W 092°08'0 0.0
2017-Oct-29 19:28N 29°49' W 092°08'0 0.0
2017-Oct-29 18:58N 29°49' W 092°08'0 0.0
2017-Oct-29 18:28N 29°49' W 092°08'0 0.0
2017-Oct-29 17:55N 29°49' W 092°08'0 0.0
2017-Oct-29 17:28N 29°49' W 092°08'0 0.0
2017-Oct-29 16:58N 29°49' W 092°08'0 0.0
2017-Oct-29 16:28N 29°49' W 092°08'0 0.0
2017-Oct-29 15:58N 29°49' W 092°08'0 0.0
2017-Oct-29 15:28N 29°49' W 092°08'0 0.0
2017-Oct-29 14:58N 29°49' W 092°08'0 0.0
2017-Oct-29 14:28N 29°49' W 092°08'0 0.0
2017-Oct-29 13:58N 29°49' W 092°08'0 0.0
2017-Oct-29 13:28N 29°49' W 092°08'0 0.0
2017-Oct-29 12:58N 29°49' W 092°08'0 0.0
2017-Oct-29 12:28N 29°49' W 092°08'0 0.0
2017-Oct-29 11:58N 29°49' W 092°08'0 0.0
2017-Oct-29 11:28N 29°49' W 092°08'0 0.0
2017-Oct-29 10:58N 29°49' W 092°08'0 0.0
2017-Oct-29 10:28N 29°49' W 092°08'0 0.0
2017-Oct-29 09:58N 29°49' W 092°08'0 0.0
2017-Oct-29 09:28N 29°49' W 092°08'0 0.0
2017-Oct-29 08:58N 29°49' W 092°08'0 0.0
2017-Oct-29 08:28N 29°49' W 092°08'0 0.0
2017-Oct-29 07:58N 29°49' W 092°08'0 0.0
2017-Oct-29 07:28N 29°49' W 092°08'0 0.0
2017-Oct-29 06:58N 29°49' W 092°08'0 0.0
2017-Oct-29 06:28N 29°49' W 092°08'0 0.0
2017-Oct-29 05:58N 29°49' W 092°08'0 0.0
2017-Oct-29 05:28N 29°49' W 092°08'0 0.0
2017-Oct-29 04:58N 29°49' W 092°08'0 0.0
2017-Oct-29 04:28N 29°49' W 092°08'0 0.0
2017-Oct-29 03:58N 29°49' W 092°08'0 0.0
2017-Oct-28 19:00N 29°49' W 092°08'0 0.0
2017-Oct-28 18:30N 29°49' W 092°08'0 0.0
2017-Oct-28 18:00N 29°49' W 092°08'0 0.0
2017-Oct-28 17:27N 29°49' W 092°08'0 0.0
2017-Oct-28 17:00N 29°49' W 092°08'0 0.0
2017-Oct-28 16:30N 29°49' W 092°08'0 0.0
2017-Oct-28 16:00N 29°49' W 092°08'0 0.0
2017-Oct-28 15:30N 29°49' W 092°08'0 0.0
2017-Oct-28 15:00N 29°49' W 092°08'0 0.0
2017-Oct-28 14:30N 29°49' W 092°08'0 0.0
2017-Oct-28 14:00N 29°49' W 092°08'0 0.0
2017-Oct-28 13:30N 29°49' W 092°08'0 0.0
2017-Oct-28 13:00N 29°49' W 092°08'0 0.0
2017-Oct-28 12:30N 29°49' W 092°08'0 0.0
2017-Oct-28 12:00N 29°49' W 092°08'0 0.0
2017-Oct-28 11:30N 29°49' W 092°08'0 0.0
2017-Oct-28 11:00N 29°49' W 092°08'0 0.0
2017-Oct-28 10:30N 29°49' W 092°08'0 0.0
2017-Oct-28 10:00N 29°49' W 092°08'0 0.0
2017-Oct-28 09:30N 29°49' W 092°08'0 0.0
2017-Oct-28 09:00N 29°49' W 092°08'0 0.0
2017-Oct-28 08:30N 29°49' W 092°08'0 0.0
2017-Oct-28 08:00N 29°49' W 092°08'0 0.0
2017-Oct-28 07:30N 29°49' W 092°08'0 0.0
2017-Oct-28 06:58N 29°49' W 092°08'0 0.0
2017-Oct-28 06:28N 29°49' W 092°08'0 0.0
2017-Oct-28 05:58N 29°49' W 092°08'0 0.0
2017-Oct-28 05:28N 29°49' W 092°08'0 0.0
2017-Oct-28 04:55N 29°49' W 092°08'0 0.0
2017-Oct-28 04:28N 29°49' W 092°08'0 0.0
2017-Oct-28 03:58N 29°49' W 092°08'0 0.0
2017-Oct-28 03:28N 29°49' W 092°08'0 0.0
2017-Oct-28 02:58N 29°49' W 092°08'0 0.0
2017-Oct-28 02:28N 29°49' W 092°08'0 0.0
2017-Oct-28 01:58N 29°49' W 092°08'0 0.0
2017-Oct-28 01:28N 29°49' W 092°08'0 0.0
2017-Oct-28 00:58N 29°49' W 092°08'0 0.0
2017-Oct-28 00:28N 29°49' W 092°08'0 0.0
2017-Oct-27 23:58N 29°49' W 092°08'0 0.0
2017-Oct-27 23:28N 29°49' W 092°08'0 0.0
2017-Oct-27 22:55N 29°49' W 092°08'0 0.0
2017-Oct-27 22:28N 29°49' W 092°08'0 0.0
2017-Oct-27 21:58N 29°49' W 092°08'0 0.0
2017-Oct-27 21:28N 29°49' W 092°08'0 0.0
2017-Oct-27 20:58N 29°49' W 092°08'0 0.0
2017-Oct-27 20:28N 29°49' W 092°08'0 0.0
2017-Oct-27 19:58N 29°49' W 092°08'0 0.0
2017-Oct-27 19:28N 29°49' W 092°08'0 0.0
2017-Oct-27 18:58N 29°49' W 092°08'0 0.0
2017-Oct-27 18:28N 29°49' W 092°08'0 0.0
2017-Oct-27 17:58N 29°49' W 092°08'0 0.0
2017-Oct-27 17:28N 29°49' W 092°08'0 0.0
2017-Oct-27 16:58N 29°49' W 092°08'0 0.3
2017-Oct-27 16:30N 29°49' W 092°08'0 0.0
2017-Oct-27 16:00N 29°49' W 092°08'0 0.0
2017-Oct-27 15:30N 29°49' W 092°08'0 0.0
2017-Oct-27 15:00N 29°49' W 092°08'0 0.0
2017-Oct-27 14:30N 29°49' W 092°08'0 0.0
2017-Oct-27 14:00N 29°49' W 092°08'2 3.9
2017-Oct-27 13:30N 29°47' W 092°09'3 6.7
2017-Oct-27 13:00N 29°46' W 092°12'4 8.9
2017-Oct-27 12:30N 29°42' W 092°15'5 7.8
2017-Oct-27 11:52N 29°37' W 092°16'3 0.1
2017-Oct-26 01:49N 29°35' W 092°18'4 8.0
2017-Oct-26 01:19N 29°38' W 092°16'2 7.6
2017-Oct-26 01:00N 29°40' W 092°15'4 7.6
2017-Oct-26 00:30N 29°44' W 092°14'4 8.5
2017-Oct-26 00:01N 29°47' W 092°10'2 4.4
2017-Oct-25 23:30N 29°48' W 092°08'1 2.9
2017-Oct-25 23:00N 29°49' W 092°08'0 0.0
2017-Oct-25 22:31N 29°49' W 092°08'0 0.0
2017-Oct-25 22:00N 29°49' W 092°08'0 0.0
2017-Oct-25 21:30N 29°49' W 092°08'0 0.0
2017-Oct-25 21:00N 29°49' W 092°08'0 0.0
2017-Oct-25 20:30N 29°49' W 092°08'0 0.0
2017-Oct-25 20:00N 29°49' W 092°08'0 0.0
2017-Oct-25 19:30N 29°49' W 092°08'0 0.0
2017-Oct-25 19:00N 29°49' W 092°08'0 0.0
2017-Oct-25 18:30N 29°49' W 092°08'0 0.0
2017-Oct-25 18:01N 29°49' W 092°08'0 0.0
2017-Oct-25 17:30N 29°49' W 092°08'0 0.0
2017-Oct-25 17:00N 29°49' W 092°08'0 0.0
2017-Oct-25 16:30N 29°49' W 092°08'0 0.0
2017-Oct-25 16:00N 29°49' W 092°08'0 0.0
2017-Oct-25 15:30N 29°49' W 092°08'0 0.0
2017-Oct-25 15:00N 29°49' W 092°08'0 0.0
2017-Oct-25 14:30N 29°49' W 092°08'0 0.0
2017-Oct-25 14:01N 29°49' W 092°08'0 0.0
2017-Oct-25 13:31N 29°49' W 092°08'0 0.0
2017-Oct-25 13:00N 29°49' W 092°08'0 0.0
2017-Oct-25 12:31N 29°49' W 092°08'0 0.0
2017-Oct-25 12:00N 29°49' W 092°08'0 0.0
2017-Oct-25 11:30N 29°49' W 092°08'0 0.0
2017-Oct-25 11:00N 29°49' W 092°08'0 0.0
2017-Oct-25 10:30N 29°49' W 092°08'0 0.0
2017-Oct-25 10:00N 29°49' W 092°08'0 0.0
2017-Oct-25 09:30N 29°49' W 092°08'0 0.0
2017-Oct-25 09:00N 29°49' W 092°08'0 0.0
2017-Oct-25 08:31N 29°49' W 092°08'0 0.0
2017-Oct-25 08:00N 29°49' W 092°08'0 0.0
2017-Oct-25 07:30N 29°49' W 092°08'0 0.0
2017-Oct-25 07:01N 29°49' W 092°08'0 0.0
2017-Oct-25 06:30N 29°49' W 092°08'0 0.0
2017-Oct-25 06:00N 29°49' W 092°08'0 0.0
2017-Oct-25 05:31N 29°49' W 092°08'0 0.0
2017-Oct-25 05:00N 29°49' W 092°08'0 0.0
2017-Oct-25 04:30N 29°49' W 092°08'0 0.0
2017-Oct-25 04:00N 29°49' W 092°08'0 0.0
2017-Oct-25 03:30N 29°49' W 092°08'0 0.0
2017-Oct-25 03:01N 29°49' W 092°08'0 0.0
2017-Oct-25 02:30N 29°49' W 092°08'0 0.0
2017-Oct-25 02:00N 29°49' W 092°08'0 0.0
2017-Oct-25 01:30N 29°49' W 092°08'0 0.0
2017-Oct-25 01:00N 29°49' W 092°08'0 0.0
2017-Oct-25 00:30N 29°49' W 092°08'0 0.0
2017-Oct-25 00:00N 29°49' W 092°08'0 0.0
2017-Oct-24 23:30N 29°49' W 092°08'0 0.0
2017-Oct-24 23:01N 29°49' W 092°08'0 0.0
2017-Oct-24 22:30N 29°49' W 092°08'0 0.0
2017-Oct-24 22:00N 29°49' W 092°08'0 0.0
2017-Oct-24 21:30N 29°49' W 092°08'0 0.0
2017-Oct-24 21:01N 29°49' W 092°08'0 0.0
2017-Oct-24 20:31N 29°49' W 092°08'1 2.2
2017-Oct-24 20:00N 29°48' W 092°08'2 4.1
2017-Oct-24 19:30N 29°47' W 092°10'4 8.3
2017-Oct-24 19:00N 29°44' W 092°14'4 8.8
2017-Oct-24 18:30N 29°40' W 092°15'10 0.3
2017-Oct-23 13:40N 29°42' W 092°04'1 7.2
2017-Oct-23 13:30N 29°42' W 092°05'4 7.9
2017-Oct-23 13:00N 29°46' W 092°08'3 6.0
2017-Oct-23 12:30N 29°49' W 092°08'1 1.0
2017-Oct-23 11:55N 29°49' W 092°08'0 0.0
2017-Oct-23 03:07N 29°49' W 092°08'0 0.0
2017-Oct-23 02:55N 29°49' W 092°08'0 0.0
2017-Oct-23 02:13N 29°49' W 092°08'0 0.0
2017-Oct-23 01:43N 29°49' W 092°08'0 0.0
2017-Oct-23 01:19N 29°49' W 092°08'0 0.0
2017-Oct-23 00:55N 29°49' W 092°08'0 0.0
2017-Oct-23 00:27N 29°49' W 092°08'0 0.0
2017-Oct-22 23:57N 29°49' W 092°08'0 0.0
2017-Oct-22 23:24N 29°49' W 092°08'0 0.0
2017-Oct-22 22:51N 29°49' W 092°08'0 0.0
2017-Oct-22 20:57N 29°49' W 092°08'0 0.0
2017-Oct-22 20:27N 29°49' W 092°08'0 0.0
2017-Oct-22 20:00N 29°49' W 092°08'0 0.0
2017-Oct-22 19:30N 29°49' W 092°08'0 0.0
2017-Oct-22 18:03N 29°49' W 092°08'0 0.0
2017-Oct-22 17:54N 29°49' W 092°08'0 0.0
2017-Oct-22 17:27N 29°49' W 092°08'0 0.0
2017-Oct-22 16:57N 29°49' W 092°08'0 0.0
2017-Oct-22 16:30N 29°49' W 092°08'0 0.0
2017-Oct-22 16:00N 29°49' W 092°08'0 0.0
2017-Oct-22 15:30N 29°49' W 092°08'0 0.0
2017-Oct-22 15:00N 29°49' W 092°08'0 0.0
2017-Oct-22 14:28N 29°49' W 092°08'0 0.0
2017-Oct-22 14:01N 29°49' W 092°08'0 0.0
2017-Oct-22 13:28N 29°49' W 092°08'0 0.0
2017-Oct-22 12:58N 29°49' W 092°08'0 0.0
2017-Oct-22 12:31N 29°49' W 092°08'0 0.0
2017-Oct-22 12:00N 29°49' W 092°08'0 0.0
2017-Oct-22 11:31N 29°49' W 092°08'0 0.0
2017-Oct-22 11:00N 29°49' W 092°08'0 0.0
2017-Oct-22 10:31N 29°49' W 092°08'0 0.0
2017-Oct-22 10:00N 29°49' W 092°08'0 0.0
2017-Oct-22 09:30N 29°49' W 092°08'0 0.0
2017-Oct-22 09:00N 29°49' W 092°08'0 0.0
2017-Oct-22 08:30N 29°49' W 092°08'0 0.0
2017-Oct-22 07:55N 29°49' W 092°08'0 0.0
2017-Oct-22 07:30N 29°49' W 092°08'0 0.0
2017-Oct-22 07:00N 29°49' W 092°08'0 0.0
2017-Oct-22 06:30N 29°49' W 092°08'0 0.0
2017-Oct-22 06:00N 29°49' W 092°08'0 0.0
2017-Oct-22 05:30N 29°49' W 092°08'0 0.0
2017-Oct-22 04:59N 29°49' W 092°08'0 0.0
2017-Oct-22 04:29N 29°49' W 092°08'0 0.0
2017-Oct-22 03:59N 29°49' W 092°08'0 0.0
2017-Oct-22 03:29N 29°49' W 092°08'0 0.0
2017-Oct-22 02:59N 29°49' W 092°08'0 0.0
2017-Oct-22 02:26N 29°49' W 092°08'0 0.0
2017-Oct-22 01:59N 29°49' W 092°08'0 0.0
2017-Oct-22 01:29N 29°49' W 092°08'0 0.0
2017-Oct-22 00:59N 29°49' W 092°08'0 0.0
2017-Oct-22 00:29N 29°49' W 092°08'0 0.0
2017-Oct-21 23:59N 29°49' W 092°08'0 0.0
2017-Oct-21 23:29N 29°49' W 092°08'0 0.0
2017-Oct-21 22:59N 29°49' W 092°08'0 0.0
2017-Oct-21 22:29N 29°49' W 092°08'  

Dump ship's entire track history